Time;durP1;ratioP1;P1;durP2;ratioP2;P2;SDS_P1;SDS_P2;PMS_P1;PMS_P2;Temp;Humidity;BMP_temperature;BMP_pressure;BME280_temperature;BME280_humidity;BME280_pressure;Samples;Min_cycle;Max_cycle;Signal;HPM_P1;HPM_P2
2021/12/04 00:00:46;;;;;;;;;;;;;;;;;;1913924;28;7045;-64
2021/12/04 00:01:44;;;;;;;;;;;;;;;;;;1913868;28;7002;-64
2021/12/04 00:02:42;;;;;;;;;;;;;;;;;;1920280;28;7017;-64
2021/12/04 00:03:41;;;;;;;;;;;;;;;;;;1919924;28;7005;-64
2021/12/04 00:04:42;;;;;;;;;;;;;;;;;;1913779;28;7113;-64
2021/12/04 00:05:46;;;;;;;;;;;;;;;;;;1913370;28;7088;-64
2021/12/04 00:06:44;;;;;;;;;;;;;;;;;;1913021;28;7120;-64
2021/12/04 00:07:42;;;;;;;;;;;;;;;;;;1912095;28;7384;-64
2021/12/04 00:08:43;;;;;;;;;;;;;;;;;;1913080;28;7053;-64
2021/12/04 00:09:45;;;;;;;;;;;;;;;;;;1913664;28;7296;-64
2021/12/04 00:10:42;;;;;;;;;;;;;;;;;;1913367;28;7131;-64
2021/12/04 00:11:51;;;;;;;;;;;;;;;;;;1913657;28;7124;-64
2021/12/04 00:12:48;;;;;;;;;;;;;;;;;;1914306;28;7017;-64
2021/12/04 00:13:45;;;;;;;;;;;;;;;;;;1912594;28;7250;-64
2021/12/04 00:14:44;;;;;;;;;;;;;;;;;;1905591;28;7104;-64
2021/12/04 00:15:42;;;;;;;;;;;;;;;;;;1905329;28;7009;-64
2021/12/04 00:16:40;;;;;;;;;;;;;;;;;;1904750;28;7038;-64
2021/12/04 00:17:37;;;;;;;;;;;;;;;;;;1905201;28;7969;-64
2021/12/04 00:18:35;;;;;;;;;;;;;;;;;;1909625;28;7038;-64
2021/12/04 00:19:33;;;;;;;;;;;;;;;;;;1913268;28;7005;-64
2021/12/04 00:20:30;;;;;;;;;;;;;;;;;;1912939;28;7006;-64
2021/12/04 00:21:28;;;;;;;;;;;;;;;;;;1913014;28;7092;-64
2021/12/04 00:22:25;;;;;;;;;;;;;;;;;;1912720;28;7017;-64
2021/12/04 00:23:23;;;;;;;;;;;;;;;;;;1912337;28;7109;-64
2021/12/04 00:24:21;;;;;;;;;;;;;;;;;;1904024;28;7372;-64
2021/12/04 00:25:19;;;;;;;;;;;;;;;;;;1904754;28;7256;-64
2021/12/04 00:26:16;;;;;;;;;;;;;;;;;;1905715;28;7097;-64
2021/12/04 00:27:14;;;;;;;;;;;;;;;;;;1905230;28;7919;-64
2021/12/04 00:28:11;;;;;;;;;;;;;;;;;;1905960;28;7062;-64
2021/12/04 00:29:09;;;;;;;;;;;;;;;;;;1911578;28;7151;-64
2021/12/04 00:30:07;;;;;;;;;;;;;;;;;;1905590;28;7245;-64
2021/12/04 00:31:07;;;;;;;;;;;;;;;;;;1906199;28;7005;-64
2021/12/04 00:32:13;;;;;;;;;;;;;;;;;;1905916;28;7041;-64
2021/12/04 00:33:19;;;;;;;;;;;;;;;;;;1904310;28;7013;-64
2021/12/04 00:34:19;;;;;;;;;;;;;;;;;;1904152;28;8007;-64
2021/12/04 00:35:44;;;;;;;;;;;;;;;;;;1906010;28;7321;-64
2021/12/04 00:36:51;;;;;;;;;;;;;;;;;;1905687;28;7062;-64
2021/12/04 00:50:07;;;;;;;;;;;;;;;;;;1904908;28;7009;-64
2021/12/04 00:51:04;;;;;;;;;;;;;;;;;;1905855;28;7109;-64
2021/12/04 00:52:02;;;;;;;;;;;;;;;;;;1906128;28;7132;-64
2021/12/04 00:52:59;;;;;;;;;;;;;;;;;;1906441;28;7009;-64
2021/12/04 00:53:57;;;;;;;;;;;;;;;;;;1905642;28;7029;-64
2021/12/04 00:54:54;;;;;;;;;;;;;;;;;;1905112;28;8037;-64
2021/12/04 00:55:52;;;;;;;;;;;;;;;;;;1903868;28;7010;-64
2021/12/04 00:56:50;;;;;;;;;;;;;;;;;;1905962;28;7196;-64
2021/12/04 00:57:47;;;;;;;;;;;;;;;;;;1913407;28;7076;-64
2021/12/04 00:58:45;;;;;;;;;;;;;;;;;;1904331;28;8328;-64
2021/12/04 00:59:42;;;;;;;;;;;;;;;;;;1908993;28;7134;-64
2021/12/04 01:00:41;;;;;;;;;;;;;;;;;;1912804;28;7029;-64
2021/12/04 01:01:39;;;;;;;;;;;;;;;;;;1912907;28;7005;-64
2021/12/04 01:02:37;;;;;;;;;;;;;;;;;;1913301;28;8039;-64
2021/12/04 01:03:35;;;;;;;;;;;;;;;;;;1913126;28;7041;-64
2021/12/04 01:04:33;;;;;;;;;;;;;;;;;;1913413;28;7360;-64
2021/12/04 01:05:30;;;;;;;;;;;;;;;;;;1912744;28;7010;-64
2021/12/04 01:06:28;;;;;;;;;;;;;;;;;;1913512;28;7096;-64
2021/12/04 01:07:25;;;;;;;;;;;;;;;;;;1912893;28;7077;-64
2021/12/04 01:08:23;;;;;;;;;;;;;;;;;;1913132;28;7005;-64
2021/12/04 01:09:23;;;;;;;;;;;;;;;;;;1913116;28;7108;-64
2021/12/04 01:10:21;;;;;;;;;;;;;;;;;;1913359;28;7289;-64
2021/12/04 01:11:18;;;;;;;;;;;;;;;;;;1904581;28;7057;-64
2021/12/04 01:12:16;;;;;;;;;;;;;;;;;;1905651;28;7108;-64
2021/12/04 01:13:13;;;;;;;;;;;;;;;;;;1905949;28;8108;-64
2021/12/04 01:14:13;;;;;;;;;;;;;;;;;;1909431;28;7014;-64
2021/12/04 01:15:10;;;;;;;;;;;;;;;;;;1906369;28;7069;-64
2021/12/04 01:16:11;;;;;;;;;;;;;;;;;;1906771;28;7041;-64
2021/12/04 01:17:08;;;;;;;;;;;;;;;;;;1906330;28;7030;-64
2021/12/04 01:18:06;;;;;;;;;;;;;;;;;;1906610;28;7100;-64
2021/12/04 01:19:03;;;;;;;;;;;;;;;;;;1912511;28;7017;-64
2021/12/04 01:20:02;;;;;;;;;;;;;;;;;;1906526;28;7045;-64
2021/12/04 01:20:59;;;;;;;;;;;;;;;;;;1906955;28;7069;-64
2021/12/04 01:21:57;;;;;;;;;;;;;;;;;;1906473;28;7144;-64
2021/12/04 01:22:55;;;;;;;;;;;;;;;;;;1906567;28;7038;-64
2021/12/04 01:23:52;;;;;;;;;;;;;;;;;;1906042;28;7017;-64
2021/12/04 01:24:49;;;;;;;;;;;;;;;;;;1906675;28;7092;-64
2021/12/04 01:25:47;;;;;;;;;;;;;;;;;;1906486;28;7013;-64
2021/12/04 01:26:45;;;;;;;;;;;;;;;;;;1913250;28;7009;-64
2021/12/04 01:27:45;;;;;;;;;;;;;;;;;;1907888;28;7006;-64
2021/12/04 01:28:43;;;;;;;;;;;;;;;;;;1907272;28;7092;-64
2021/12/04 01:29:43;;;;;;;;;;;;;;;;;;1906438;28;8059;-64
2021/12/04 01:30:41;;;;;;;;;;;;;;;;;;1905622;28;7025;-64
2021/12/04 01:31:38;;;;;;;;;;;;;;;;;;1906971;28;7009;-64
2021/12/04 01:32:36;;;;;;;;;;;;;;;;;;1907840;28;7128;-64
2021/12/04 01:33:33;;;;;;;;;;;;;;;;;;1913363;28;8111;-64
2021/12/04 01:34:31;;;;;;;;;;;;;;;;;;1913950;28;7050;-64
2021/12/04 01:35:28;;;;;;;;;;;;;;;;;;1915452;28;7100;-64
2021/12/04 01:36:26;;;;;;;;;;;;;;;;;;1914291;28;7092;-64
2021/12/04 01:37:23;;;;;;;;;;;;;;;;;;1914072;28;7057;-64
2021/12/04 01:38:21;;;;;;;;;;;;;;;;;;1914190;28;7017;-64
2021/12/04 01:39:19;;;;;;;;;;;;;;;;;;1914075;28;7113;-64
2021/12/04 01:40:17;;;;;;;;;;;;;;;;;;1914167;28;7034;-64
2021/12/04 01:41:15;;;;;;;;;;;;;;;;;;1913616;28;7274;-64
2021/12/04 01:42:16;;;;;;;;;;;;;;;;;;1914215;28;7311;-64
2021/12/04 01:43:14;;;;;;;;;;;;;;;;;;1914600;28;7009;-64
2021/12/04 01:44:14;;;;;;;;;;;;;;;;;;1914607;28;7045;-64
2021/12/04 01:45:12;;;;;;;;;;;;;;;;;;1914749;28;7178;-64
2021/12/04 01:46:09;;;;;;;;;;;;;;;;;;1914391;28;7038;-64
2021/12/04 01:47:19;;;;;;;;;;;;;;;;;;1914349;28;8098;-64
2021/12/04 01:48:16;;;;;;;;;;;;;;;;;;1905496;28;7014;-64
2021/12/04 01:49:14;;;;;;;;;;;;;;;;;;1906628;28;7009;-64
2021/12/04 01:50:11;;;;;;;;;;;;;;;;;;1907073;28;7013;-64
2021/12/04 01:51:09;;;;;;;;;;;;;;;;;;1910091;28;7025;-64
2021/12/04 01:52:07;;;;;;;;;;;;;;;;;;1906989;28;7046;-64
2021/12/04 01:53:06;;;;;;;;;;;;;;;;;;1907161;28;7009;-64
2021/12/04 01:54:04;;;;;;;;;;;;;;;;;;1906794;28;7006;-64
2021/12/04 01:55:03;;;;;;;;;;;;;;;;;;1906727;28;7029;-64
2021/12/04 01:56:01;;;;;;;;;;;;;;;;;;1906763;28;7006;-64
2021/12/04 01:56:58;;;;;;;;;;;;;;;;;;1905845;28;7097;-64
2021/12/04 01:57:57;;;;;;;;;;;;;;;;;;1911838;28;7084;-64
2021/12/04 01:58:55;;;;;;;;;;;;;;;;;;1908892;28;7100;-64
2021/12/04 01:59:53;;;;;;;;;;;;;;;;;;1910048;28;7120;-64
2021/12/04 02:00:50;;;;;;;;;;;;;;;;;;1914141;28;7399;-64
2021/12/04 02:01:48;;;;;;;;;;;;;;;;;;1911417;28;7009;-64
2021/12/04 02:02:46;;;;;;;;;;;;;;;;;;1906728;28;7313;-64
2021/12/04 02:03:44;;;;;;;;;;;;;;;;;;1907219;28;7109;-64
2021/12/04 02:04:41;;;;;;;;;;;;;;;;;;1906635;28;7388;-64
2021/12/04 02:05:40;;;;;;;;;;;;;;;;;;1906185;28;7038;-64
2021/12/04 02:06:38;;;;;;;;;;;;;;;;;;1907138;28;7093;-64
2021/12/04 02:07:35;;;;;;;;;;;;;;;;;;1910874;28;7097;-65
2021/12/04 02:08:33;;;;;;;;;;;;;;;;;;1911227;28;7017;-64
2021/12/04 02:09:34;;;;;;;;;;;;;;;;;;1906430;28;7053;-64
2021/12/04 02:10:32;;;;;;;;;;;;;;;;;;1906807;28;7100;-65
2021/12/04 02:11:30;;;;;;;;;;;;;;;;;;1906810;28;7005;-64
2021/12/04 02:12:27;;;;;;;;;;;;;;;;;;1906789;28;7092;-64
2021/12/04 02:13:25;;;;;;;;;;;;;;;;;;1906980;28;7324;-64
2021/12/04 02:14:23;;;;;;;;;;;;;;;;;;1911390;28;7005;-64
2021/12/04 02:15:20;;;;;;;;;;;;;;;;;;1913848;28;7002;-64
2021/12/04 02:16:19;;;;;;;;;;;;;;;;;;1913486;28;7123;-64
2021/12/04 02:17:17;;;;;;;;;;;;;;;;;;1913169;28;7076;-64
2021/12/04 02:18:15;;;;;;;;;;;;;;;;;;1905781;28;8015;-64
2021/12/04 02:19:15;;;;;;;;;;;;;;;;;;1905996;28;7138;-64
2021/12/04 02:20:17;;;;;;;;;;;;;;;;;;1906107;28;7113;-64
2021/12/04 02:21:15;;;;;;;;;;;;;;;;;;1906720;28;7092;-65
2021/12/04 02:22:13;;;;;;;;;;;;;;;;;;1905715;28;7096;-64
2021/12/04 02:23:11;;;;;;;;;;;;;;;;;;1906345;28;7017;-64
2021/12/04 02:24:08;;;;;;;;;;;;;;;;;;1905540;28;7017;-64
2021/12/04 02:25:08;;;;;;;;;;;;;;;;;;1905646;28;7009;-64
2021/12/04 02:26:06;;;;;;;;;;;;;;;;;;1906046;28;7113;-64
2021/12/04 02:27:03;;;;;;;;;;;;;;;;;;1908113;28;7038;-64
2021/12/04 02:28:02;;;;;;;;;;;;;;;;;;1906114;28;7093;-64
2021/12/04 02:29:00;;;;;;;;;;;;;;;;;;1906372;28;7005;-64
2021/12/04 02:29:57;;;;;;;;;;;;;;;;;;1906363;28;7120;-64
2021/12/04 02:30:55;;;;;;;;;;;;;;;;;;1905349;28;7041;-64
2021/12/04 02:31:55;;;;;;;;;;;;;;;;;;1906279;28;7045;-64
2021/12/04 02:32:53;;;;;;;;;;;;;;;;;;1904689;28;7128;-64
2021/12/04 02:33:52;;;;;;;;;;;;;;;;;;1905636;28;7029;-64
2021/12/04 02:34:49;;;;;;;;;;;;;;;;;;1906207;28;7113;-64
2021/12/04 02:35:51;;;;;;;;;;;;;;;;;;1913664;28;7037;-64
2021/12/04 02:36:49;;;;;;;;;;;;;;;;;;1912975;28;7120;-64
2021/12/04 02:37:47;;;;;;;;;;;;;;;;;;1906287;28;7088;-64
2021/12/04 02:38:51;;;;;;;;;;;;;;;;;;1905496;28;7092;-64
2021/12/04 02:39:57;;;;;;;;;;;;;;;;;;1913447;28;7045;-64
2021/12/04 02:40:56;;;;;;;;;;;;;;;;;;1912850;28;7046;-64
2021/12/04 02:41:54;;;;;;;;;;;;;;;;;;1911954;28;7128;-64
2021/12/04 02:42:52;;;;;;;;;;;;;;;;;;1912214;28;7009;-64
2021/12/04 02:43:49;;;;;;;;;;;;;;;;;;1906627;28;7009;-64
2021/12/04 02:44:48;;;;;;;;;;;;;;;;;;1906453;28;8031;-64
2021/12/04 02:45:45;;;;;;;;;;;;;;;;;;1907001;28;8186;-64
2021/12/04 02:46:43;;;;;;;;;;;;;;;;;;1906363;28;7038;-64
2021/12/04 02:47:41;;;;;;;;;;;;;;;;;;1905824;28;7281;-64
2021/12/04 02:48:39;;;;;;;;;;;;;;;;;;1904119;28;7014;-64
2021/12/04 02:49:36;;;;;;;;;;;;;;;;;;1906222;28;7112;-64
2021/12/04 02:50:34;;;;;;;;;;;;;;;;;;1906849;28;7108;-64
2021/12/04 02:51:31;;;;;;;;;;;;;;;;;;1907682;28;7315;-64
2021/12/04 02:52:28;;;;;;;;;;;;;;;;;;1905905;28;7002;-64
2021/12/04 02:53:26;;;;;;;;;;;;;;;;;;1906016;28;7096;-64
2021/12/04 02:54:23;;;;;;;;;;;;;;;;;;1906387;28;7092;-64
2021/12/04 02:55:21;;;;;;;;;;;;;;;;;;1906232;28;7009;-64
2021/12/04 02:56:18;;;;;;;;;;;;;;;;;;1906199;28;7025;-64
2021/12/04 02:57:17;;;;;;;;;;;;;;;;;;1906300;28;7002;-64
2021/12/04 02:58:16;;;;;;;;;;;;;;;;;;1906168;28;7017;-64
2021/12/04 02:59:13;;;;;;;;;;;;;;;;;;1907421;28;8091;-64
2021/12/04 03:00:14;;;;;;;;;;;;;;;;;;1918052;28;7005;-64
2021/12/04 03:01:12;;;;;;;;;;;;;;;;;;1913003;28;7009;-64
2021/12/04 03:02:32;;;;;;;;;;;;;;;;;;1912589;28;7005;-65
2021/12/04 03:03:31;;;;;;;;;;;;;;;;;;1905344;28;7112;-64
2021/12/04 03:04:31;;;;;;;;;;;;;;;;;;1905974;28;7014;-64
2021/12/04 03:05:29;;;;;;;;;;;;;;;;;;1906444;28;7017;-64
2021/12/04 03:06:26;;;;;;;;;;;;;;;;;;1906368;28;7092;-64
2021/12/04 03:07:24;;;;;;;;;;;;;;;;;;1906206;28;7088;-64
2021/12/04 03:08:22;;;;;;;;;;;;;;;;;;1905915;28;7010;-64
2021/12/04 03:09:21;;;;;;;;;;;;;;;;;;1906395;28;7092;-64
2021/12/04 03:10:18;;;;;;;;;;;;;;;;;;1906170;28;7144;-64
2021/12/04 03:11:16;;;;;;;;;;;;;;;;;;1905254;28;7257;-64
2021/12/04 03:12:15;;;;;;;;;;;;;;;;;;1910028;28;7042;-64
2021/12/04 03:13:12;;;;;;;;;;;;;;;;;;1913763;28;7096;-63
2021/12/04 03:14:10;;;;;;;;;;;;;;;;;;1912635;28;7041;-64
2021/12/04 03:15:08;;;;;;;;;;;;;;;;;;1912808;28;7096;-64
2021/12/04 03:16:05;;;;;;;;;;;;;;;;;;1913059;28;7096;-64
2021/12/04 03:17:04;;;;;;;;;;;;;;;;;;1905275;28;7013;-64
2021/12/04 03:18:01;;;;;;;;;;;;;;;;;;1905666;28;8063;-64
2021/12/04 03:18:59;;;;;;;;;;;;;;;;;;1905882;28;7140;-64
2021/12/04 03:19:56;;;;;;;;;;;;;;;;;;1905598;28;7117;-63
2021/12/04 03:20:55;;;;;;;;;;;;;;;;;;1905609;28;7013;-64
2021/12/04 03:21:54;;;;;;;;;;;;;;;;;;1907118;28;7005;-64
2021/12/04 03:22:58;;;;;;;;;;;;;;;;;;1907012;28;7017;-64
2021/12/04 03:24:08;;;;;;;;;;;;;;;;;;1905880;28;8284;-64
2021/12/04 03:25:06;;;;;;;;;;;;;;;;;;1913184;28;7200;-64
2021/12/04 03:26:08;;;;;;;;;;;;;;;;;;1913587;28;7024;-64
2021/12/04 03:27:06;;;;;;;;;;;;;;;;;;1912124;28;7375;-64
2021/12/04 03:28:06;;;;;;;;;;;;;;;;;;1905644;28;7037;-64
2021/12/04 03:29:07;;;;;;;;;;;;;;;;;;1905403;28;7109;-64
2021/12/04 03:30:13;;;;;;;;;;;;;;;;;;1905510;28;7105;-64
2021/12/04 03:31:18;;;;;;;;;;;;;;;;;;1906135;28;7001;-64
2021/12/04 03:40:59;;;;;;;;;;;;;;;;;;1906050;28;7038;-64
2021/12/04 03:41:56;;;;;;;;;;;;;;;;;;1910659;28;8055;-64
2021/12/04 03:42:55;;;;;;;;;;;;;;;;;;1913119;28;7120;-64
2021/12/04 03:43:53;;;;;;;;;;;;;;;;;;1913714;28;7013;-64
2021/12/04 03:44:50;;;;;;;;;;;;;;;;;;1913413;28;7029;-64
2021/12/04 03:45:53;;;;;;;;;;;;;;;;;;1913227;28;7017;-64
2021/12/04 03:46:51;;;;;;;;;;;;;;;;;;1913600;28;8055;-64
2021/12/04 03:47:51;;;;;;;;;;;;;;;;;;1913039;28;7096;-64
2021/12/04 03:49:47;;;;;;;;;;;;;;;;;;1905595;28;8127;-64
2021/12/04 03:50:45;;;;;;;;;;;;;;;;;;1905012;28;7913;-64
2021/12/04 03:51:44;;;;;;;;;;;;;;;;;;1905358;28;7144;-64
2021/12/04 03:52:42;;;;;;;;;;;;;;;;;;1905338;28;7196;-64
2021/12/04 03:53:39;;;;;;;;;;;;;;;;;;1905979;28;7009;-64
2021/12/04 03:54:37;;;;;;;;;;;;;;;;;;1907315;28;7017;-64
2021/12/04 03:55:35;;;;;;;;;;;;;;;;;;1912266;28;7156;-64
2021/12/04 03:56:32;;;;;;;;;;;;;;;;;;1910054;28;8027;-64
2021/12/04 03:57:30;;;;;;;;;;;;;;;;;;1905726;28;7013;-64
2021/12/04 03:58:27;;;;;;;;;;;;;;;;;;1906227;28;7361;-64
2021/12/04 03:59:26;;;;;;;;;;;;;;;;;;1906481;28;7061;-64
2021/12/04 04:00:28;;;;;;;;;;;;;;;;;;1913496;28;7009;-64
2021/12/04 04:01:25;;;;;;;;;;;;;;;;;;1913153;28;7050;-64
2021/12/04 04:02:23;;;;;;;;;;;;;;;;;;1913310;28;7013;-64
2021/12/04 04:03:21;;;;;;;;;;;;;;;;;;1920519;28;7095;-64
2021/12/04 04:04:18;;;;;;;;;;;;;;;;;;1920489;28;7013;-64
2021/12/04 04:05:16;;;;;;;;;;;;;;;;;;1910680;28;7009;-65
2021/12/04 04:06:13;;;;;;;;;;;;;;;;;;1906451;28;7042;-64
2021/12/04 04:07:11;;;;;;;;;;;;;;;;;;1906232;28;7009;-64
2021/12/04 04:08:11;;;;;;;;;;;;;;;;;;1913787;28;8178;-64
2021/12/04 04:09:09;;;;;;;;;;;;;;;;;;1913415;28;7013;-64
2021/12/04 04:10:07;;;;;;;;;;;;;;;;;;1912841;28;7100;-64
2021/12/04 04:11:04;;;;;;;;;;;;;;;;;;1913479;28;7146;-64
2021/12/04 04:12:02;;;;;;;;;;;;;;;;;;1913547;28;7005;-64
2021/12/04 04:13:00;;;;;;;;;;;;;;;;;;1913691;28;7312;-64
2021/12/04 04:13:57;;;;;;;;;;;;;;;;;;1911560;28;7009;-64
2021/12/04 04:14:55;;;;;;;;;;;;;;;;;;1905547;28;7156;-64
2021/12/04 04:15:52;;;;;;;;;;;;;;;;;;1910892;28;7097;-64
2021/12/04 04:16:53;;;;;;;;;;;;;;;;;;1912885;28;7053;-64
2021/12/04 04:17:51;;;;;;;;;;;;;;;;;;1912633;28;7014;-64
2021/12/04 04:18:48;;;;;;;;;;;;;;;;;;1912579;28;7017;-64
2021/12/04 04:19:46;;;;;;;;;;;;;;;;;;1911990;28;7096;-64
2021/12/04 04:20:44;;;;;;;;;;;;;;;;;;1912168;28;7009;-64
2021/12/04 04:21:44;;;;;;;;;;;;;;;;;;1913269;28;7013;-64
2021/12/04 04:22:42;;;;;;;;;;;;;;;;;;1904898;28;7096;-64
2021/12/04 04:23:40;;;;;;;;;;;;;;;;;;1905755;28;7117;-64
2021/12/04 04:24:37;;;;;;;;;;;;;;;;;;1905512;28;7009;-64
2021/12/04 04:25:35;;;;;;;;;;;;;;;;;;1904957;28;7667;-64
2021/12/04 04:26:33;;;;;;;;;;;;;;;;;;1905343;28;7088;-64
2021/12/04 04:27:30;;;;;;;;;;;;;;;;;;1905818;28;7316;-64
2021/12/04 04:28:28;;;;;;;;;;;;;;;;;;1905519;28;7005;-64
2021/12/04 04:29:26;;;;;;;;;;;;;;;;;;1905169;28;7371;-64
2021/12/04 04:30:24;;;;;;;;;;;;;;;;;;1905613;28;7152;-64
2021/12/04 04:31:21;;;;;;;;;;;;;;;;;;1905811;28;7335;-64
2021/12/04 04:32:19;;;;;;;;;;;;;;;;;;1912466;28;7005;-64
2021/12/04 04:33:16;;;;;;;;;;;;;;;;;;1910702;28;6997;-64
2021/12/04 04:34:21;;;;;;;;;;;;;;;;;;1912670;28;7021;-64
2021/12/04 04:35:21;;;;;;;;;;;;;;;;;;1913722;28;7088;-64
2021/12/04 04:36:37;;;;;;;;;;;;;;;;;;1913018;28;7017;-64
2021/12/04 04:37:49;;;;;;;;;;;;;;;;;;1905399;28;7092;-64
2021/12/04 04:57:37;;;;;;;;;;;;;;;;;;1907150;28;7017;-64
2021/12/04 05:00:53;;;;;;;;;;;;;;;;;;1905713;28;7010;-64
2021/12/04 05:02:05;;;;;;;;;;;;;;;;;;1903241;28;7009;-64
2021/12/04 05:11:04;;;;;;;;;;;;;;;;;;1914754;28;7017;-64
2021/12/04 05:13:04;;;;;;;;;;;;;;;;;;1914430;28;7332;-64
2021/12/04 05:14:04;;;;;;;;;;;;;;;;;;1926335;28;7815;-64
2021/12/04 05:15:12;;;;;;;;;;;;;;;;;;1921161;28;7013;-64
2021/12/04 05:17:29;;;;;;;;;;;;;;;;;;1906393;28;7009;-64
2021/12/04 05:19:28;;;;;;;;;;;;;;;;;;1905727;28;7045;-64
2021/12/04 05:20:33;;;;;;;;;;;;;;;;;;1906578;28;7009;-64
2021/12/04 05:21:30;;;;;;;;;;;;;;;;;;1906431;28;7041;-65
2021/12/04 05:22:28;;;;;;;;;;;;;;;;;;1906294;28;7152;-64
2021/12/04 05:23:25;;;;;;;;;;;;;;;;;;1913354;28;8047;-64
2021/12/04 05:24:22;;;;;;;;;;;;;;;;;;1914238;28;7312;-64
2021/12/04 05:25:20;;;;;;;;;;;;;;;;;;1913554;28;7009;-64
2021/12/04 05:26:19;;;;;;;;;;;;;;;;;;1913608;28;7332;-64
2021/12/04 05:27:17;;;;;;;;;;;;;;;;;;1910797;28;7124;-64
2021/12/04 05:28:14;;;;;;;;;;;;;;;;;;1913894;28;7013;-64
2021/12/04 05:29:12;;;;;;;;;;;;;;;;;;1905648;28;7127;-64
2021/12/04 05:30:10;;;;;;;;;;;;;;;;;;1906628;28;7066;-64
2021/12/04 05:31:07;;;;;;;;;;;;;;;;;;1907393;28;7435;-64
2021/12/04 05:32:05;;;;;;;;;;;;;;;;;;1905297;28;7018;-64
2021/12/04 05:33:04;;;;;;;;;;;;;;;;;;1905927;28;7092;-64
2021/12/04 05:34:01;;;;;;;;;;;;;;;;;;1906060;28;7316;-63
2021/12/04 05:34:59;;;;;;;;;;;;;;;;;;1906467;28;7513;-64
2021/12/04 05:35:57;;;;;;;;;;;;;;;;;;1906389;28;7014;-64
2021/12/04 05:36:54;;;;;;;;;;;;;;;;;;1906971;28;7009;-64
2021/12/04 05:37:52;;;;;;;;;;;;;;;;;;1914520;28;7030;-64
2021/12/04 05:38:50;;;;;;;;;;;;;;;;;;1906504;28;7046;-64
2021/12/04 05:39:47;;;;;;;;;;;;;;;;;;1906635;28;7014;-64
2021/12/04 05:40:45;;;;;;;;;;;;;;;;;;1906764;28;7009;-64
2021/12/04 05:41:42;;;;;;;;;;;;;;;;;;1905523;28;7093;-64
2021/12/04 05:42:41;;;;;;;;;;;;;;;;;;1906770;28;7105;-64
2021/12/04 05:43:39;;;;;;;;;;;;;;;;;;1906576;28;7006;-64
2021/12/04 05:44:38;;;;;;;;;;;;;;;;;;1908441;28;7041;-64
2021/12/04 05:45:40;;;;;;;;;;;;;;;;;;1921934;28;7061;-64
2021/12/04 05:46:53;;;;;;;;;;;;;;;;;;1921471;28;7092;-64
2021/12/04 05:48:08;;;;;;;;;;;;;;;;;;1913937;28;7839;-64
2021/12/04 05:49:23;;;;;;;;;;;;;;;;;;1911797;28;7005;-64
2021/12/04 05:55:24;;;;;;;;;;;;;;;;;;1906660;28;7046;-64
2021/12/04 05:56:22;;;;;;;;;;;;;;;;;;1906667;28;8309;-64
2021/12/04 05:57:19;;;;;;;;;;;;;;;;;;1906537;28;7005;-64
2021/12/04 05:58:17;;;;;;;;;;;;;;;;;;1906529;28;7108;-64
2021/12/04 05:59:15;;;;;;;;;;;;;;;;;;1906192;28;8046;-64
2021/12/04 06:00:18;;;;;;;;;;;;;;;;;;1913397;28;7005;-64
2021/12/04 06:01:17;;;;;;;;;;;;;;;;;;1914771;28;7025;-64
2021/12/04 06:02:16;;;;;;;;;;;;;;;;;;1914563;28;7308;-64
2021/12/04 06:03:15;;;;;;;;;;;;;;;;;;1914257;28;7105;-64
2021/12/04 06:04:12;;;;;;;;;;;;;;;;;;1914109;28;7252;-64
2021/12/04 06:05:10;;;;;;;;;;;;;;;;;;1913490;28;7054;-64
2021/12/04 06:06:08;;;;;;;;;;;;;;;;;;1913378;28;7092;-64
2021/12/04 06:07:05;;;;;;;;;;;;;;;;;;1913727;28;7088;-64
2021/12/04 06:08:03;;;;;;;;;;;;;;;;;;1914110;28;7092;-64
2021/12/04 06:09:00;;;;;;;;;;;;;;;;;;1908170;28;7217;-64
2021/12/04 06:09:57;;;;;;;;;;;;;;;;;;1906862;28;7009;-65
2021/12/04 06:10:56;;;;;;;;;;;;;;;;;;1906314;28;7317;-64
2021/12/04 06:11:54;;;;;;;;;;;;;;;;;;1905260;28;7120;-65
2021/12/04 06:12:51;;;;;;;;;;;;;;;;;;1906672;28;7005;-64
2021/12/04 06:13:49;;;;;;;;;;;;;;;;;;1906138;28;7050;-64
2021/12/04 06:14:49;;;;;;;;;;;;;;;;;;1913577;28;7030;-64
2021/12/04 06:15:46;;;;;;;;;;;;;;;;;;1913323;28;7009;-64
2021/12/04 06:16:44;;;;;;;;;;;;;;;;;;1913535;28;7017;-64
2021/12/04 06:17:41;;;;;;;;;;;;;;;;;;1913493;28;7009;-64
2021/12/04 06:18:39;;;;;;;;;;;;;;;;;;1911200;28;7010;-63
2021/12/04 06:23:24;;;;;;;;;;;;;;;;;;1905561;28;7006;-64
2021/12/04 06:24:22;;;;;;;;;;;;;;;;;;1913599;28;7092;-64
2021/12/04 06:25:20;;;;;;;;;;;;;;;;;;1910664;28;7078;-64
2021/12/04 06:26:17;;;;;;;;;;;;;;;;;;1904750;28;7131;-65
2021/12/04 06:27:15;;;;;;;;;;;;;;;;;;1905890;28;7160;-64
2021/12/04 06:28:12;;;;;;;;;;;;;;;;;;1905604;28;7005;-64
2021/12/04 06:29:10;;;;;;;;;;;;;;;;;;1906339;28;7009;-64
2021/12/04 06:30:10;;;;;;;;;;;;;;;;;;1905987;28;7455;-64
2021/12/04 06:31:08;;;;;;;;;;;;;;;;;;1906684;28;7109;-64
2021/12/04 06:32:06;;;;;;;;;;;;;;;;;;1906218;28;7014;-64
2021/12/04 06:33:05;;;;;;;;;;;;;;;;;;1906037;28;7010;-64
2021/12/04 06:34:03;;;;;;;;;;;;;;;;;;1909638;28;8111;-64
2021/12/04 06:35:00;;;;;;;;;;;;;;;;;;1913365;28;7001;-65
2021/12/04 06:35:58;;;;;;;;;;;;;;;;;;1914241;28;7088;-64
2021/12/04 06:36:55;;;;;;;;;;;;;;;;;;1913446;28;7199;-64
2021/12/04 06:37:54;;;;;;;;;;;;;;;;;;1913091;28;7005;-64
2021/12/04 06:38:53;;;;;;;;;;;;;;;;;;1912257;28;7033;-64
2021/12/04 06:39:50;;;;;;;;;;;;;;;;;;1913119;28;7005;-65
2021/12/04 06:40:48;;;;;;;;;;;;;;;;;;1905209;28;7009;-64
2021/12/04 06:41:46;;;;;;;;;;;;;;;;;;1906408;28;7372;-64
2021/12/04 06:42:44;;;;;;;;;;;;;;;;;;1906473;28;7104;-64
2021/12/04 06:43:48;;;;;;;;;;;;;;;;;;1906851;28;7088;-64
2021/12/04 06:44:46;;;;;;;;;;;;;;;;;;1906849;28;7365;-64
2021/12/04 06:45:47;;;;;;;;;;;;;;;;;;1906184;28;7092;-64
2021/12/04 06:46:44;;;;;;;;;;;;;;;;;;1905485;28;7013;-65
2021/12/04 06:47:48;;;;;;;;;;;;;;;;;;1906180;28;7005;-65
2021/12/04 06:49:24;;;;;;;;;;;;;;;;;;1906433;28;7024;-64
2021/12/04 06:50:17;;;;;;;;;;;;;;;;;;1904837;28;7116;-64
2021/12/04 06:52:22;;;;;;;;;;;;;;;;;;1908575;28;7092;-64
2021/12/04 06:53:26;;;;;;;;;;;;;;;;;;1913706;28;7097;-64
2021/12/04 06:54:28;;;;;;;;;;;;;;;;;;1905237;28;8055;-64
2021/12/04 06:55:29;;;;;;;;;;;;;;;;;;1911832;28;7403;-64
2021/12/04 06:56:37;;;;;;;;;;;;;;;;;;1913809;28;7009;-64
2021/12/04 06:57:38;;;;;;;;;;;;;;;;;;1913684;28;7096;-64
2021/12/04 06:58:36;;;;;;;;;;;;;;;;;;1908586;28;7088;-64
2021/12/04 06:59:34;;;;;;;;;;;;;;;;;;1911299;28;7005;-64
2021/12/04 07:00:32;;;;;;;;;;;;;;;;;;1906739;28;7005;-65
2021/12/04 07:01:30;;;;;;;;;;;;;;;;;;1906464;28;7097;-64
2021/12/04 07:02:27;;;;;;;;;;;;;;;;;;1904746;28;7014;-64
2021/12/04 07:03:26;;;;;;;;;;;;;;;;;;1905941;28;7092;-64
2021/12/04 07:04:29;;;;;;;;;;;;;;;;;;1905954;28;7001;-64
2021/12/04 07:05:26;;;;;;;;;;;;;;;;;;1913528;28;7340;-64
2021/12/04 07:06:24;;;;;;;;;;;;;;;;;;1913726;28;7026;-64
2021/12/04 07:07:22;;;;;;;;;;;;;;;;;;1904995;28;7092;-64
2021/12/04 07:08:19;;;;;;;;;;;;;;;;;;1906118;28;7100;-64
2021/12/04 07:09:17;;;;;;;;;;;;;;;;;;1906398;28;7009;-64
2021/12/04 07:10:14;;;;;;;;;;;;;;;;;;1906333;28;7133;-64
2021/12/04 07:11:12;;;;;;;;;;;;;;;;;;1906219;28;7009;-64
2021/12/04 07:12:10;;;;;;;;;;;;;;;;;;1905863;28;7006;-64
2021/12/04 07:13:07;;;;;;;;;;;;;;;;;;1906454;28;7104;-64
2021/12/04 07:14:05;;;;;;;;;;;;;;;;;;1907348;28;7176;-64
2021/12/04 07:15:03;;;;;;;;;;;;;;;;;;1912938;28;7049;-64
2021/12/04 07:16:05;;;;;;;;;;;;;;;;;;1904423;28;7009;-64
2021/12/04 07:17:04;;;;;;;;;;;;;;;;;;1919873;28;7599;-64
2021/12/04 07:18:03;;;;;;;;;;;;;;;;;;1919809;28;7009;-64
2021/12/04 07:19:00;;;;;;;;;;;;;;;;;;1907871;28;7045;-64
2021/12/04 07:19:58;;;;;;;;;;;;;;;;;;1912942;28;7327;-64
2021/12/04 07:20:55;;;;;;;;;;;;;;;;;;1912954;28;7116;-65
2021/12/04 07:21:52;;;;;;;;;;;;;;;;;;1912848;28;7034;-64
2021/12/04 07:22:50;;;;;;;;;;;;;;;;;;1913686;28;7100;-64
2021/12/04 07:23:50;;;;;;;;;;;;;;;;;;1911264;28;7246;-65
2021/12/04 07:24:47;;;;;;;;;;;;;;;;;;1912614;28;8106;-64
2021/12/04 07:25:45;;;;;;;;;;;;;;;;;;1905736;28;7010;-64
2021/12/04 07:26:43;;;;;;;;;;;;;;;;;;1905470;28;8016;-64
2021/12/04 07:27:40;;;;;;;;;;;;;;;;;;1905640;28;7009;-65
2021/12/04 07:28:37;;;;;;;;;;;;;;;;;;1905137;28;7005;-64
2021/12/04 07:29:35;;;;;;;;;;;;;;;;;;1905597;28;7124;-64
2021/12/04 07:30:32;;;;;;;;;;;;;;;;;;1913667;28;8035;-65
2021/12/04 07:31:30;;;;;;;;;;;;;;;;;;1912947;28;7042;-64
2021/12/04 07:32:29;;;;;;;;;;;;;;;;;;1906223;28;7104;-64
2021/12/04 07:33:27;;;;;;;;;;;;;;;;;;1904894;28;7042;-64
2021/12/04 07:34:24;;;;;;;;;;;;;;;;;;1904987;28;7010;-64
2021/12/04 07:35:22;;;;;;;;;;;;;;;;;;1905822;28;8047;-64
2021/12/04 07:36:20;;;;;;;;;;;;;;;;;;1905592;28;7017;-65
2021/12/04 07:37:18;;;;;;;;;;;;;;;;;;1906646;28;7005;-65
2021/12/04 07:38:16;;;;;;;;;;;;;;;;;;1905328;28;7030;-64
2021/12/04 07:39:14;;;;;;;;;;;;;;;;;;1906313;28;7362;-64
2021/12/04 07:40:12;;;;;;;;;;;;;;;;;;1906113;28;7109;-64
2021/12/04 07:41:10;;;;;;;;;;;;;;;;;;1907657;28;7006;-64
2021/12/04 07:42:07;;;;;;;;;;;;;;;;;;1913422;28;8015;-65
2021/12/04 07:43:05;;;;;;;;;;;;;;;;;;1913214;28;7001;-64
2021/12/04 07:44:03;;;;;;;;;;;;;;;;;;1913733;28;7005;-64
2021/12/04 07:45:01;;;;;;;;;;;;;;;;;;1913583;28;8027;-65
2021/12/04 07:45:58;;;;;;;;;;;;;;;;;;1913499;28;7224;-65
2021/12/04 07:46:57;;;;;;;;;;;;;;;;;;1905038;28;7005;-64
2021/12/04 07:47:54;;;;;;;;;;;;;;;;;;1906203;28;7077;-64
2021/12/04 07:48:52;;;;;;;;;;;;;;;;;;1907422;28;7010;-64
2021/12/04 07:49:49;;;;;;;;;;;;;;;;;;1910580;28;7009;-64
2021/12/04 07:50:47;;;;;;;;;;;;;;;;;;1913935;28;7005;-64
2021/12/04 07:51:44;;;;;;;;;;;;;;;;;;1913697;28;7137;-64
2021/12/04 07:52:42;;;;;;;;;;;;;;;;;;1904509;28;7096;-65
2021/12/04 07:53:39;;;;;;;;;;;;;;;;;;1906085;28;7105;-64